Time;durP1;ratioP1;P1;durP2;ratioP2;P2;SDS_P1;SDS_P2;PMS_P1;PMS_P2;Temp;Humidity;BMP_temperature;BMP_pressure;BME280_temperature;BME280_humidity;BME280_pressure;Samples;Min_cycle;Max_cycle;Signal;HPM_P1;HPM_P2
2022/08/14 00:00:54;;;;;;;4.10;1.97;;;17.20;99.90;;;;;;5081820;28;21049;-81
2022/08/14 00:03:23;;;;;;;1.70;1.60;;;17.20;99.90;;;;;;5076870;28;20466;-83
2022/08/14 00:05:50;;;;;;;1.50;1.40;;;17.10;99.90;;;;;;5083474;28;21154;-83
2022/08/14 00:08:19;;;;;;;1.97;1.53;;;17.10;99.90;;;;;;5073914;28;20540;-82
2022/08/14 00:10:46;;;;;;;2.30;1.60;;;17.10;99.90;;;;;;5077230;28;20528;-84
2022/08/14 00:13:13;;;;;;;2.80;1.57;;;17.20;99.90;;;;;;5080438;28;20516;-84
2022/08/14 00:15:44;;;;;;;5.53;2.30;;;17.20;99.90;;;;;;5073673;28;20464;-83
2022/08/14 00:18:13;;;;;;;2.13;1.93;;;17.30;99.90;;;;;;5077955;28;20956;-83
2022/08/14 00:20:42;;;;;;;1.83;1.13;;;17.10;99.90;;;;;;5076570;28;20474;-82
2022/08/14 00:23:11;;;;;;;4.67;2.13;;;17.10;99.90;;;;;;5081709;28;20473;-83
2022/08/14 00:25:40;;;;;;;1.40;1.00;;;17.00;99.90;;;;;;5079626;28;20520;-82
2022/08/14 00:28:09;;;;;;;2.53;2.33;;;16.90;99.90;;;;;;5080403;28;21095;-83
2022/08/14 00:30:36;;;;;;;2.40;1.90;;;16.90;99.90;;;;;;5079399;28;20580;-82
2022/08/14 00:33:04;;;;;;;1.63;1.53;;;16.80;99.90;;;;;;5077811;28;20475;-82
2022/08/14 00:35:31;;;;;;;2.00;1.90;;;16.70;99.90;;;;;;5073521;28;20527;-83
2022/08/14 00:37:58;;;;;;;1.83;1.73;;;16.70;99.90;;;;;;5075795;28;20470;-82
2022/08/14 00:40:26;;;;;;;2.43;1.40;;;16.50;99.90;;;;;;5075266;28;20498;-81
2022/08/14 00:42:55;;;;;;;1.83;1.57;;;16.50;99.90;;;;;;5082321;28;20481;-82
2022/08/14 00:45:22;;;;;;;2.63;2.17;;;16.50;99.90;;;;;;5085084;28;20505;-80
2022/08/14 00:47:50;;;;;;;1.73;1.63;;;16.50;99.90;;;;;;5081454;28;20443;-84
2022/08/14 00:50:19;;;;;;;2.07;1.40;;;16.50;99.90;;;;;;5075959;28;20590;-82
2022/08/14 00:52:47;;;;;;;2.10;1.00;;;16.50;99.90;;;;;;5082133;28;20465;-83
2022/08/14 00:55:14;;;;;;;1.70;1.60;;;16.30;99.90;;;;;;5079012;28;20470;-84
2022/08/14 00:57:41;;;;;;;2.63;2.20;;;16.30;99.90;;;;;;5083053;28;20474;-82
2022/08/14 01:00:15;;;;;;;2.20;1.53;;;16.30;99.90;;;;;;5080141;28;20508;-84
2022/08/14 01:02:43;;;;;;;2.70;2.50;;;16.30;99.90;;;;;;5082658;28;20466;-82
2022/08/14 01:05:22;;;;;;;1.30;1.20;;;16.30;99.90;;;;;;5076983;28;20560;-83
2022/08/14 01:07:53;;;;;;;2.30;1.90;;;16.30;99.90;;;;;;5073619;28;20463;-82
2022/08/14 01:10:20;;;;;;;1.60;1.20;;;16.30;99.90;;;;;;5085065;28;20456;-83
2022/08/14 01:12:47;;;;;;;2.70;1.77;;;16.40;99.90;;;;;;5081548;28;20460;-82
2022/08/14 01:15:20;;;;;;;2.60;1.80;;;16.40;99.90;;;;;;5078932;28;20550;-83
2022/08/14 01:23:19;;;;;;;2.20;1.80;;;16.10;99.90;;;;;;5076456;28;20465;-83
2022/08/14 01:25:48;;;;;;;3.07;1.70;;;16.10;99.90;;;;;;5079377;28;20468;-82
2022/08/14 01:28:15;;;;;;;1.50;1.30;;;16.10;99.90;;;;;;5082114;28;21004;-82
2022/08/14 01:30:43;;;;;;;1.37;1.17;;;16.10;99.90;;;;;;5073789;28;20524;-83
2022/08/14 01:33:11;;;;;;;1.70;1.60;;;16.00;99.90;;;;;;5075354;28;20547;-83
2022/08/14 01:35:43;;;;;;;2.27;2.10;;;16.10;99.90;;;;;;5075866;28;20470;-82
2022/08/14 01:38:13;;;;;;;1.93;1.77;;;16.20;99.90;;;;;;5077354;28;20467;-83
2022/08/14 01:40:42;;;;;;;1.93;1.73;;;16.30;99.90;;;;;;5082604;28;20489;-83
2022/08/14 01:43:16;;;;;;;3.00;2.50;;;16.20;99.90;;;;;;5081223;28;20539;-82
2022/08/14 01:45:44;;;;;;;1.83;1.57;;;16.10;99.90;;;;;;5082280;28;20469;-83
2022/08/14 01:48:14;;;;;;;2.47;2.27;;;16.20;99.90;;;;;;5073380;28;20471;-83
2022/08/14 01:50:43;;;;;;;1.60;1.50;;;16.20;99.90;;;;;;5076071;28;20493;-81
2022/08/14 01:53:11;;;;;;;3.83;2.93;;;16.30;99.90;;;;;;5075919;28;20523;-82
2022/08/14 01:55:39;;;;;;;2.90;1.93;;;16.20;99.90;;;;;;5073279;28;20489;-83
2022/08/14 01:58:11;;;;;;;1.77;1.67;;;16.20;99.90;;;;;;5081234;28;20474;-83
2022/08/14 02:00:38;;;;;;;2.60;1.40;;;16.10;99.90;;;;;;5076225;28;20578;-82
2022/08/14 02:03:06;;;;;;;1.70;1.53;;;16.00;99.90;;;;;;5075593;28;21018;-83
2022/08/14 02:05:34;;;;;;;1.87;1.20;;;16.10;99.90;;;;;;5077414;28;20944;-83
2022/08/14 02:08:01;;;;;;;2.37;2.27;;;16.00;99.90;;;;;;5076787;28;20469;-82
2022/08/14 02:10:28;;;;;;;2.50;1.53;;;15.90;99.90;;;;;;5076599;28;21005;-82
2022/08/14 02:12:56;;;;;;;2.10;1.90;;;15.90;99.90;;;;;;5076696;28;20537;-82
2022/08/14 02:15:25;;;;;;;4.53;1.73;;;15.80;99.90;;;;;;5075807;28;20454;-82
2022/08/14 02:17:52;;;;;;;2.10;2.00;;;15.80;99.90;;;;;;5077329;28;20517;-83
2022/08/14 02:20:20;;;;;;;1.63;1.17;;;15.90;99.90;;;;;;5069559;28;20498;-82
2022/08/14 02:22:47;;;;;;;3.00;2.60;;;15.80;99.90;;;;;;5072965;28;20494;-82
2022/08/14 02:25:14;;;;;;;2.27;1.57;;;15.70;99.90;;;;;;5074464;28;21177;-82
2022/08/14 02:27:41;;;;;;;2.67;2.47;;;15.70;99.90;;;;;;5072047;28;20470;-82
2022/08/14 02:30:10;;;;;;;1.50;1.40;;;15.70;99.90;;;;;;5074101;28;20552;-84
2022/08/14 02:32:38;;;;;;;5.33;1.77;;;15.70;99.90;;;;;;5079348;28;20519;-82
2022/08/14 02:35:14;;;;;;;2.03;1.77;;;15.70;99.90;;;;;;5071855;28;20459;-82
2022/08/14 02:37:41;;;;;;;2.57;1.57;;;15.80;99.90;;;;;;5077462;28;20553;-83
2022/08/14 02:40:09;;;;;;;3.07;1.43;;;15.80;99.90;;;;;;5078708;28;20516;-82
2022/08/14 02:42:36;;;;;;;1.70;1.10;;;15.80;99.90;;;;;;5073842;28;20575;-83
2022/08/14 02:45:04;;;;;;;2.37;1.70;;;15.80;99.90;;;;;;5079793;28;20451;-82
2022/08/14 02:47:31;;;;;;;2.70;2.00;;;15.90;99.90;;;;;;5077064;28;20455;-82
2022/08/14 02:49:59;;;;;;;2.40;1.80;;;15.90;99.90;;;;;;5069077;28;21028;-82
2022/08/14 02:52:26;;;;;;;1.20;1.10;;;15.90;99.90;;;;;;5075974;28;20554;-82
2022/08/14 02:54:54;;;;;;;1.60;1.40;;;15.90;99.90;;;;;;5073450;28;20499;-83
2022/08/14 02:57:23;;;;;;;2.53;1.83;;;15.90;99.90;;;;;;5070510;28;20579;-82
2022/08/14 02:59:51;;;;;;;2.10;1.90;;;15.90;99.90;;;;;;5076455;28;20482;-82
2022/08/14 03:02:18;;;;;;;2.67;2.07;;;16.00;99.90;;;;;;5076769;28;20514;-84
2022/08/14 03:04:46;;;;;;;1.90;1.80;;;16.00;99.90;;;;;;5078270;28;20519;-84
2022/08/14 03:07:15;;;;;;;3.03;1.93;;;16.10;99.90;;;;;;5076942;28;20462;-82
2022/08/14 03:09:43;;;;;;;2.00;1.80;;;16.10;99.90;;;;;;5077586;28;21156;-83
2022/08/14 03:12:11;;;;;;;1.20;1.10;;;16.10;99.90;;;;;;5076437;28;20474;-83
2022/08/14 03:14:42;;;;;;;1.70;1.37;;;16.00;99.90;;;;;;5082298;28;20470;-82
2022/08/14 03:17:14;;;;;;;2.20;2.00;;;16.00;99.90;;;;;;5081012;28;20462;-84
2022/08/14 03:19:42;;;;;;;1.87;1.77;;;16.00;99.90;;;;;;5085630;28;20498;-82
2022/08/14 03:22:09;;;;;;;3.07;2.03;;;16.00;99.90;;;;;;5079619;28;20463;-82
2022/08/14 03:24:37;;;;;;;2.30;1.63;;;16.10;99.90;;;;;;5082640;28;20468;-82
2022/08/14 03:27:05;;;;;;;1.57;1.47;;;16.20;99.90;;;;;;5077025;28;20942;-82
2022/08/14 03:29:33;;;;;;;2.30;1.40;;;16.30;99.90;;;;;;5085300;28;20458;-83
2022/08/14 03:32:00;;;;;;;1.83;1.73;;;16.30;99.90;;;;;;5082100;28;20544;-82
2022/08/14 03:34:27;;;;;;;1.73;1.63;;;16.30;99.90;;;;;;5077467;28;20483;-81
2022/08/14 03:36:57;;;;;;;2.30;1.83;;;16.40;99.90;;;;;;5079011;28;20459;-83
2022/08/14 03:39:25;;;;;;;2.53;2.33;;;16.50;99.90;;;;;;5085738;28;20951;-82
2022/08/14 03:41:56;;;;;;;2.00;1.90;;;16.40;99.90;;;;;;5077131;28;21210;-84
2022/08/14 03:44:24;;;;;;;1.33;1.23;;;16.30;99.90;;;;;;5077723;28;20493;-83
2022/08/14 03:46:51;;;;;;;1.20;1.10;;;16.50;99.90;;;;;;5077972;28;20522;-81
2022/08/14 03:49:22;;;;;;;1.67;1.43;;;16.60;99.90;;;;;;5080320;28;20475;-83
2022/08/14 03:51:49;;;;;;;1.67;1.57;;;16.70;99.90;;;;;;5076989;28;20475;-82
2022/08/14 03:54:16;;;;;;;2.10;1.80;;;16.70;99.90;;;;;;5077514;28;20474;-82
2022/08/14 03:56:44;;;;;;;2.07;1.87;;;16.70;99.90;;;;;;5079778;28;20849;-82
2022/08/14 03:59:12;;;;;;;3.33;1.70;;;16.70;99.90;;;;;;5084351;28;20466;-85
2022/08/14 04:01:40;;;;;;;1.50;1.30;;;16.60;99.90;;;;;;5089051;28;20486;-82
2022/08/14 04:04:08;;;;;;;1.60;1.50;;;16.60;99.90;;;;;;5083640;28;20467;-82
2022/08/14 04:06:37;;;;;;;2.10;1.90;;;16.50;99.90;;;;;;5078837;28;20554;-83
2022/08/14 04:09:05;;;;;;;1.20;1.10;;;16.50;99.90;;;;;;5072465;28;20907;-82
2022/08/14 04:11:34;;;;;;;1.67;1.57;;;16.50;99.90;;;;;;5084119;28;20574;-83
2022/08/14 04:14:02;;;;;;;1.33;1.23;;;16.60;99.90;;;;;;5085890;28;20462;-82
2022/08/14 04:16:30;;;;;;;2.10;2.00;;;16.60;99.90;;;;;;5082666;28;20470;-82
2022/08/14 04:18:59;;;;;;;2.00;1.90;;;16.60;99.90;;;;;;5083242;28;21049;-82
2022/08/14 04:21:28;;;;;;;2.07;1.73;;;16.60;99.90;;;;;;5082251;28;20505;-83
2022/08/14 04:23:57;;;;;;;7.30;1.90;;;16.70;99.90;;;;;;5079745;28;20454;-84
2022/08/14 04:26:26;;;;;;;2.23;1.37;;;16.60;99.90;;;;;;5076610;28;20554;-84
2022/08/14 04:28:54;;;;;;;1.40;1.27;;;16.50;99.90;;;;;;5079602;28;20965;-83
2022/08/14 04:31:23;;;;;;;3.67;2.30;;;16.60;99.90;;;;;;5079930;28;20466;-82
2022/08/14 04:33:52;;;;;;;1.17;1.07;;;16.60;99.90;;;;;;5079279;28;20466;-83
2022/08/14 04:36:19;;;;;;;1.50;1.40;;;16.70;99.90;;;;;;5086214;28;20480;-83
2022/08/14 04:44:14;;;;;;;2.13;1.50;;;16.60;99.90;;;;;;5073168;28;20477;-85
2022/08/14 04:48:11;;;;;;;2.07;1.90;;;16.70;99.90;;;;;;5078459;28;20545;-83
2022/08/14 04:49:32;;;;;;;1.00;1.00;;;16.80;99.90;;;;;;5079985;28;20447;-82
2022/08/14 04:51:59;;;;;;;1.43;1.33;;;16.90;99.90;;;;;;5077928;28;21185;-84
2022/08/14 04:54:27;;;;;;;2.63;1.77;;;16.90;99.90;;;;;;5076611;28;21056;-83
2022/08/14 04:56:55;;;;;;;1.80;1.70;;;16.90;99.90;;;;;;5074321;28;20456;-84
2022/08/14 04:59:22;;;;;;;3.27;1.70;;;17.00;99.90;;;;;;5080504;28;20450;-82
2022/08/14 05:01:51;;;;;;;2.00;1.63;;;17.10;99.90;;;;;;5077462;28;21020;-84
2022/08/14 05:04:18;;;;;;;1.33;1.17;;;17.00;99.90;;;;;;5079717;28;20462;-82
2022/08/14 05:06:47;;;;;;;1.20;1.00;;;17.00;99.90;;;;;;5083459;28;20472;-82
2022/08/14 05:09:14;;;;;;;1.67;1.33;;;17.00;99.90;;;;;;5075414;28;20456;-83
2022/08/14 05:11:41;;;;;;;1.50;1.40;;;16.90;99.90;;;;;;5072516;28;20567;-83
2022/08/14 05:14:10;;;;;;;2.00;1.43;;;17.00;99.90;;;;;;5072770;28;21134;-81
2022/08/14 05:16:37;;;;;;;1.20;1.10;;;17.10;99.90;;;;;;5079633;28;20458;-82
2022/08/14 05:19:04;;;;;;;1.63;1.50;;;17.10;99.90;;;;;;5075050;28;20875;-84
2022/08/14 05:21:32;;;;;;;1.80;1.70;;;17.10;99.90;;;;;;5078103;28;20483;-82
2022/08/14 05:24:00;;;;;;;2.60;1.53;;;17.20;99.90;;;;;;5074004;28;20466;-84
2022/08/14 05:26:27;;;;;;;2.70;2.37;;;17.30;99.90;;;;;;5073608;28;20548;-82
2022/08/14 05:28:54;;;;;;;1.97;1.60;;;17.20;99.90;;;;;;5077749;28;20486;-83
2022/08/14 05:31:21;;;;;;;1.67;1.50;;;17.40;99.90;;;;;;5076169;28;20459;-82
2022/08/14 05:33:49;;;;;;;1.50;1.40;;;17.40;99.90;;;;;;5077482;28;20517;-81
2022/08/14 05:36:16;;;;;;;1.63;1.53;;;17.40;99.90;;;;;;5078044;28;20536;-85
2022/08/14 05:38:46;;;;;;;2.13;1.90;;;17.50;99.90;;;;;;5082225;28;20543;-84
2022/08/14 05:41:17;;;;;;;1.47;1.37;;;17.70;99.90;;;;;;5075657;28;20569;-91
2022/08/14 05:43:46;;;;;;;1.50;1.40;;;17.80;99.90;;;;;;5074429;28;20493;-87
2022/08/14 05:46:17;;;;;;;1.90;1.80;;;17.80;99.90;;;;;;5070301;28;20459;-87
2022/08/14 05:48:47;;;;;;;1.57;1.47;;;17.90;99.90;;;;;;5067833;28;20925;-86
2022/08/14 05:51:14;;;;;;;1.93;1.83;;;18.00;99.90;;;;;;5074566;28;20561;-87
2022/08/14 05:53:41;;;;;;;1.53;1.30;;;18.10;99.90;;;;;;5064560;28;21221;-86
2022/08/14 05:56:08;;;;;;;1.73;1.63;;;18.30;99.90;;;;;;5066540;28;20496;-87
2022/08/14 05:58:37;;;;;;;1.73;1.63;;;18.20;99.90;;;;;;5075533;28;20540;-86
2022/08/14 06:01:04;;;;;;;1.87;1.77;;;18.20;99.90;;;;;;5066429;28;20480;-87
2022/08/14 06:03:31;;;;;;;3.10;1.97;;;18.30;99.90;;;;;;5068672;28;20459;-86
2022/08/14 06:06:05;;;;;;;2.07;1.87;;;18.30;99.90;;;;;;5077229;28;20497;-87
2022/08/14 06:08:33;;;;;;;1.43;1.33;;;18.50;99.90;;;;;;5080792;28;20516;-88
2022/08/14 06:11:02;;;;;;;2.00;1.80;;;18.50;99.90;;;;;;5071284;28;20528;-87
2022/08/14 06:13:31;;;;;;;2.10;1.90;;;18.60;99.90;;;;;;5073191;28;20566;-86
2022/08/14 06:15:59;;;;;;;2.73;1.90;;;18.80;99.90;;;;;;5071303;28;20480;-87
2022/08/14 06:18:26;;;;;;;2.03;1.87;;;18.90;99.90;;;;;;5075695;28;20460;-87
2022/08/14 06:20:54;;;;;;;4.10;2.33;;;18.90;99.90;;;;;;5075405;28;20569;-88
2022/08/14 06:23:21;;;;;;;2.30;2.07;;;19.20;99.90;;;;;;5074091;28;21057;-87
2022/08/14 06:25:48;;;;;;;2.10;1.67;;;19.30;99.90;;;;;;5070410;28;20526;-88
2022/08/14 06:28:19;;;;;;;2.03;1.93;;;19.50;99.90;;;;;;5073608;28;20537;-87
2022/08/14 06:30:46;;;;;;;1.73;1.63;;;19.60;99.90;;;;;;5081328;28;20478;-86
2022/08/14 06:33:16;;;;;;;4.20;2.03;;;19.60;99.90;;;;;;5074859;28;20471;-87
2022/08/14 06:35:43;;;;;;;3.43;1.77;;;19.80;99.90;;;;;;5069215;28;20455;-87
2022/08/14 06:38:15;;;;;;;2.57;1.70;;;19.80;99.90;;;;;;5078881;28;20994;-86
2022/08/14 06:40:43;;;;;;;2.40;1.70;;;20.00;99.90;;;;;;5071548;28;20997;-87
2022/08/14 06:43:12;;;;;;;1.60;1.50;;;20.00;99.90;;;;;;5076198;28;20515;-88
2022/08/14 06:45:41;;;;;;;2.17;1.97;;;20.10;99.90;;;;;;5067367;28;20488;-86
2022/08/14 06:48:15;;;;;;;1.73;1.47;;;20.10;99.90;;;;;;5069244;28;20892;-86
2022/08/14 06:50:43;;;;;;;1.70;1.60;;;20.30;99.90;;;;;;5086573;28;20466;-85
2022/08/14 06:53:13;;;;;;;2.00;1.90;;;20.50;99.70;;;;;;5070932;28;20560;-86
2022/08/14 06:55:40;;;;;;;2.17;1.53;;;20.70;99.00;;;;;;5088710;28;20463;-86
2022/08/14 06:58:11;;;;;;;2.73;2.10;;;21.00;97.70;;;;;;5088328;28;20451;-86
2022/08/14 07:00:39;;;;;;;1.63;1.53;;;21.50;97.70;;;;;;5075562;28;20461;-86
2022/08/14 07:05:51;;;;;;;1.70;1.60;;;21.70;95.30;;;;;;5086021;28;20491;-86
2022/08/14 07:08:21;;;;;;;2.10;1.83;;;21.50;94.40;;;;;;5075972;28;20532;-85
2022/08/14 07:10:50;;;;;;;3.53;1.60;;;21.40;96.00;;;;;;5072554;28;20462;-85
2022/08/14 07:13:18;;;;;;;1.23;1.13;;;21.60;96.20;;;;;;5072404;28;20462;-87
2022/08/14 07:15:48;;;;;;;1.83;1.70;;;21.80;95.00;;;;;;5074131;28;20562;-88
2022/08/14 07:18:19;;;;;;;2.33;2.00;;;21.90;94.90;;;;;;5078564;28;21234;-86
2022/08/14 07:20:46;;;;;;;2.63;2.47;;;22.40;94.60;;;;;;5072757;28;20467;-87
2022/08/14 07:23:14;;;;;;;1.87;1.77;;;22.40;94.20;;;;;;5088444;28;20447;-88
2022/08/14 07:25:43;;;;;;;2.63;2.43;;;22.70;93.60;;;;;;5073855;28;20832;-87
2022/08/14 07:28:12;;;;;;;2.63;2.40;;;22.60;93.40;;;;;;5073945;28;20516;-88
2022/08/14 07:30:39;;;;;;;1.77;1.60;;;22.70;93.30;;;;;;5075042;28;20593;-84
2022/08/14 07:33:07;;;;;;;3.13;2.33;;;22.80;93.80;;;;;;5071801;28;20470;-86
2022/08/14 07:35:35;;;;;;;1.60;1.50;;;22.90;94.30;;;;;;5076530;28;20489;-86
2022/08/14 07:38:03;;;;;;;3.60;2.87;;;22.70;94.20;;;;;;5074788;28;20546;-88
2022/08/14 07:40:35;;;;;;;2.80;2.17;;;23.10;93.20;;;;;;5080197;28;20462;-89
2022/08/14 07:43:02;;;;;;;1.77;1.67;;;23.10;92.80;;;;;;5082643;28;20875;-87
2022/08/14 07:45:29;;;;;;;2.77;2.57;;;22.90;93.00;;;;;;5078733;28;20459;-87
2022/08/14 07:47:56;;;;;;;2.30;2.10;;;22.70;93.20;;;;;;5072809;28;20455;-86
2022/08/14 07:50:24;;;;;;;2.40;2.20;;;22.60;93.80;;;;;;5073077;28;20948;-87
2022/08/14 07:52:51;;;;;;;2.87;2.40;;;22.80;93.20;;;;;;5073202;28;20472;-86
2022/08/14 07:55:18;;;;;;;3.03;2.83;;;23.10;95.40;;;;;;5073184;28;20591;-87
2022/08/14 07:57:49;;;;;;;1.83;1.73;;;23.20;93.90;;;;;;5079308;28;20464;-87
2022/08/14 08:00:18;;;;;;;2.50;2.07;;;23.10;92.90;;;;;;5070545;28;20525;-86
2022/08/14 08:02:48;;;;;;;2.43;1.97;;;22.80;95.50;;;;;;5083031;28;20478;-86
2022/08/14 08:05:16;;;;;;;2.70;2.50;;;22.60;95.60;;;;;;5073347;28;20464;-86
2022/08/14 08:07:45;;;;;;;2.60;2.20;;;22.40;94.20;;;;;;5069165;28;20458;-86
2022/08/14 08:10:33;;;;;;;3.57;3.27;;;22.30;95.70;;;;;;5064937;28;20460;-86
2022/08/14 08:13:03;;;;;;;3.90;2.50;;;22.20;95.60;;;;;;5068376;28;20476;-86
2022/08/14 08:15:35;;;;;;;2.40;2.20;;;22.40;96.70;;;;;;5072049;28;20462;-86
2022/08/14 08:18:03;;;;;;;2.80;2.60;;;22.40;94.80;;;;;;5068759;28;20558;-87
2022/08/14 08:20:33;;;;;;;2.30;2.10;;;23.00;96.20;;;;;;5066237;28;20459;-86
2022/08/14 08:23:01;;;;;;;2.50;2.30;;;23.30;95.70;;;;;;5075574;28;20535;-84
2022/08/14 08:25:31;;;;;;;2.10;1.80;;;23.60;94.60;;;;;;5074082;28;20467;-85
2022/08/14 08:28:02;;;;;;;2.13;1.97;;;23.90;94.10;;;;;;5078496;28;20959;-86
2022/08/14 08:30:31;;;;;;;3.23;2.57;;;24.50;93.00;;;;;;5073710;28;20463;-86
2022/08/14 08:33:01;;;;;;;2.33;2.03;;;24.50;92.60;;;;;;5071867;28;20459;-86
2022/08/14 08:35:30;;;;;;;2.63;2.43;;;24.70;93.40;;;;;;5070888;28;20458;-86
2022/08/14 08:38:03;;;;;;;3.30;2.53;;;25.10;93.50;;;;;;5068134;28;20459;-86
2022/08/14 08:40:35;;;;;;;2.10;1.87;;;25.50;92.50;;;;;;5070480;28;20458;-86
2022/08/14 08:43:06;;;;;;;1.90;1.80;;;26.00;90.70;;;;;;5072040;28;20581;-85
2022/08/14 08:45:34;;;;;;;3.13;2.93;;;25.90;90.50;;;;;;5078195;28;20462;-86
2022/08/14 08:48:01;;;;;;;2.20;2.00;;;26.00;89.20;;;;;;5081711;28;20524;-86
2022/08/14 08:50:31;;;;;;;2.17;2.00;;;25.70;89.80;;;;;;5081690;28;20451;-86
2022/08/14 08:53:01;;;;;;;2.10;1.90;;;25.50;90.40;;;;;;5086008;28;21151;-86
2022/08/14 08:55:31;;;;;;;3.53;2.07;;;25.40;91.50;;;;;;5065977;28;20498;-86
2022/08/14 08:57:59;;;;;;;2.00;1.83;;;25.00;92.80;;;;;;5072360;28;20535;-86
2022/08/14 09:00:33;;;;;;;2.03;1.90;;;25.40;91.80;;;;;;5068054;28;20479;-88
2022/08/14 09:03:04;;;;;;;1.80;1.70;;;25.50;92.40;;;;;;5074210;28;20672;-89
2022/08/14 09:05:33;;;;;;;2.30;1.53;;;25.00;91.20;;;;;;5085623;28;20470;-86
2022/08/14 09:08:11;;;;;;;2.47;2.13;;;25.20;91.90;;;;;;5084822;28;20475;-86
2022/08/14 09:10:38;;;;;;;3.53;3.00;;;25.30;93.40;;;;;;5075295;28;20962;-88
2022/08/14 09:13:05;;;;;;;2.50;2.30;;;25.20;92.60;;;;;;5071398;28;20479;-86
2022/08/14 09:15:34;;;;;;;2.70;2.37;;;25.30;92.50;;;;;;5076564;28;20795;-86
2022/08/14 09:18:01;;;;;;;2.60;2.40;;;25.40;92.60;;;;;;5067423;28;20567;-86
2022/08/14 09:20:28;;;;;;;2.30;2.13;;;25.20;91.40;;;;;;5067543;28;21144;-87
2022/08/14 09:22:56;;;;;;;2.23;2.03;;;25.00;91.90;;;;;;5072629;28;20540;-86
2022/08/14 09:25:23;;;;;;;2.87;2.53;;;25.10;91.50;;;;;;5068906;28;20929;-86
2022/08/14 09:27:50;;;;;;;2.47;1.97;;;25.20;91.00;;;;;;5068904;28;20490;-86
2022/08/14 09:30:17;;;;;;;2.90;1.80;;;25.00;91.00;;;;;;5076717;28;20462;-86
2022/08/14 09:33:15;;;;;;;4.17;3.10;;;24.90;91.90;;;;;;5080025;28;20466;-86
2022/08/14 09:35:53;;;;;;;3.33;2.87;;;24.90;91.30;;;;;;5074263;28;20960;-86
2022/08/14 09:38:28;;;;;;;2.60;2.40;;;24.70;93.10;;;;;;5070666;28;20466;-85
2022/08/14 09:41:04;;;;;;;2.10;2.00;;;25.10;92.80;;;;;;5072986;28;20458;-85
2022/08/14 09:43:42;;;;;;;3.33;3.10;;;25.00;91.40;;;;;;5074118;28;20578;-85
2022/08/14 09:46:09;;;;;;;2.83;2.43;;;24.70;91.40;;;;;;5079141;28;20460;-86
2022/08/14 09:48:38;;;;;;;2.33;2.10;;;24.40;91.30;;;;;;5099562;28;20451;-85
2022/08/14 09:51:08;;;;;;;2.77;2.23;;;24.60;92.40;;;;;;5078161;28;20532;-86
2022/08/14 09:53:42;;;;;;;3.13;2.47;;;25.30;91.60;;;;;;5073027;28;20475;-86
2022/08/14 09:56:10;;;;;;;3.67;3.10;;;25.20;90.90;;;;;;5083078;28;20458;-85
2022/08/14 09:58:39;;;;;;;2.43;2.10;;;25.50;90.50;;;;;;5078446;28;20470;-86
2022/08/14 10:01:12;;;;;;;3.00;2.80;;;25.70;90.20;;;;;;5077431;28;21002;-87
2022/08/14 10:03:51;;;;;;;3.47;3.17;;;26.20;90.30;;;;;;5074894;28;20543;-89
2022/08/14 10:06:20;;;;;;;2.40;2.10;;;26.10;88.80;;;;;;5071387;28;20532;-89
2022/08/14 10:08:50;;;;;;;3.37;2.03;;;25.60;90.10;;;;;;5068637;28;20464;-88
2022/08/14 10:11:19;;;;;;;3.10;2.90;;;25.10;90.60;;;;;;5069038;28;20536;-87
2022/08/14 10:13:48;;;;;;;3.17;2.77;;;24.90;90.90;;;;;;5071958;28;20458;-85
2022/08/14 10:16:15;;;;;;;3.03;2.83;;;25.10;90.80;;;;;;5069281;28;21167;-86
2022/08/14 10:18:43;;;;;;;2.40;2.20;;;25.60;90.20;;;;;;5064147;28;20460;-86
2022/08/14 10:21:17;;;;;;;3.10;2.20;;;24.90;90.60;;;;;;5070676;28;20463;-85
2022/08/14 10:23:48;;;;;;;3.60;3.03;;;24.80;91.50;;;;;;5081049;28;20585;-85
2022/08/14 10:26:18;;;;;;;3.17;2.87;;;24.90;91.40;;;;;;5078806;28;20463;-86
2022/08/14 10:28:48;;;;;;;2.77;2.57;;;24.90;91.90;;;;;;5077240;28;20544;-85
2022/08/14 10:31:21;;;;;;;2.87;2.60;;;25.50;91.50;;;;;;5072181;28;20529;-86
2022/08/14 10:34:01;;;;;;;1.77;1.67;;;25.50;91.00;;;;;;5077829;28;20471;-87
2022/08/14 10:36:31;;;;;;;2.97;2.67;;;25.50;90.90;;;;;;5072474;28;20467;-87
2022/08/14 10:38:59;;;;;;;2.83;2.60;;;25.50;89.20;;;;;;5077280;28;20462;-85
2022/08/14 10:41:38;;;;;;;2.70;2.33;;;25.00;90.80;;;;;;5076883;28;20486;-86
2022/08/14 10:44:08;;;;;;;2.20;2.00;;;24.80;90.40;;;;;;5076098;28;20905;-87
2022/08/14 10:46:41;;;;;;;2.27;1.97;;;24.60;91.70;;;;;;5079233;28;20439;-87
2022/08/14 10:49:18;;;;;;;3.03;2.83;;;24.90;90.70;;;;;;5079476;28;20535;-87
2022/08/14 10:52:04;;;;;;;2.97;2.50;;;25.30;91.50;;;;;;5070680;28;21221;-87
2022/08/14 10:54:37;;;;;;;2.53;2.33;;;25.70;90.10;;;;;;5076581;28;20463;-88
2022/08/14 10:57:17;;;;;;;4.77;3.37;;;25.80;89.50;;;;;;5075806;28;20457;-87
2022/08/14 10:59:50;;;;;;;5.97;3.63;;;26.30;86.80;;;;;;5075976;28;20860;-88
2022/08/14 11:02:28;;;;;;;1.63;1.53;;;26.20;85.90;;;;;;5076576;28;21189;-87
2022/08/14 11:05:16;;;;;;;2.73;2.53;;;26.40;85.30;;;;;;5076357;28;20466;-86
2022/08/14 11:07:56;;;;;;;6.77;3.70;;;26.30;84.20;;;;;;5082187;28;20547;-88
2022/08/14 11:10:40;;;;;;;3.27;2.90;;;26.60;81.70;;;;;;5085429;28;20462;-87
2022/08/14 11:13:08;;;;;;;2.87;2.67;;;26.80;82.70;;;;;;5076692;28;21266;-86
2022/08/14 11:15:35;;;;;;;2.97;2.40;;;26.90;81.20;;;;;;5079642;28;20455;-87
2022/08/14 11:18:04;;;;;;;1.87;1.73;;;27.10;85.90;;;;;;5072293;28;20993;-86
2022/08/14 11:20:32;;;;;;;2.80;2.60;;;27.50;78.70;;;;;;5080459;28;20463;-86
2022/08/14 11:23:02;;;;;;;2.47;2.27;;;27.50;82.50;;;;;;5075616;28;21150;-87
2022/08/14 11:25:31;;;;;;;2.57;2.37;;;27.10;82.90;;;;;;5073047;28;20539;-88
2022/08/14 11:27:59;;;;;;;2.53;2.43;;;27.40;81.10;;;;;;5076642;28;20546;-84
2022/08/14 11:30:29;;;;;;;2.50;2.30;;;27.10;80.40;;;;;;5083222;28;20543;-83
2022/08/14 11:32:58;;;;;;;3.60;2.77;;;27.50;84.40;;;;;;5070475;28;20464;-84
2022/08/14 11:35:27;;;;;;;2.80;2.50;;;27.50;81.40;;;;;;5067025;28;20542;-83
2022/08/14 11:37:58;;;;;;;2.80;2.57;;;27.50;77.90;;;;;;5072348;28;20525;-84
2022/08/14 11:40:28;;;;;;;2.90;2.53;;;27.70;77.60;;;;;;5072471;28;20494;-84
2022/08/14 11:42:55;;;;;;;2.27;2.03;;;27.10;78.50;;;;;;5074923;28;20498;-84
2022/08/14 11:45:24;;;;;;;2.17;1.97;;;26.90;81.40;;;;;;5076319;28;20551;-84
2022/08/14 11:47:52;;;;;;;2.70;2.50;;;27.10;79.60;;;;;;5065426;28;20602;-82
2022/08/14 11:50:22;;;;;;;2.77;1.77;;;27.40;77.80;;;;;;5070378;28;21047;-84
2022/08/14 11:52:51;;;;;;;2.33;2.13;;;27.80;78.20;;;;;;5075725;28;21217;-83
2022/08/14 11:55:20;;;;;;;2.23;2.13;;;27.80;79.20;;;;;;5072341;28;20827;-82
2022/08/14 11:57:58;;;;;;;2.87;2.30;;;28.10;78.80;;;;;;5072012;28;20462;-82
2022/08/14 12:00:25;;;;;;;2.67;2.47;;;27.90;77.70;;;;;;5081028;28;20470;-82
2022/08/14 12:02:54;;;;;;;2.50;2.30;;;27.90;75.60;;;;;;5070872;28;20484;-82
2022/08/14 12:05:38;;;;;;;4.90;3.00;;;28.20;77.80;;;;;;5081405;28;20463;-84
2022/08/14 12:08:06;;;;;;;1.60;1.50;;;28.40;75.20;;;;;;5076377;28;20540;-83
2022/08/14 12:10:36;;;;;;;2.30;2.10;;;29.10;73.00;;;;;;5070894;28;20451;-82
2022/08/14 12:13:14;;;;;;;2.47;2.17;;;29.00;69.30;;;;;;5071033;28;20459;-83
2022/08/14 12:15:43;;;;;;;1.93;1.83;;;28.60;71.10;;;;;;5074660;28;20550;-82
2022/08/14 12:18:12;;;;;;;2.00;1.87;;;28.10;72.50;;;;;;5080756;28;20451;-82
2022/08/14 12:20:42;;;;;;;2.07;1.90;;;28.20;73.40;;;;;;5077290;28;20463;-83
2022/08/14 12:23:22;;;;;;;2.40;2.20;;;28.00;71.20;;;;;;5074895;28;20603;-82
2022/08/14 12:26:01;;;;;;;2.50;1.47;;;28.00;72.80;;;;;;5078921;28;20466;-82
2022/08/14 12:28:28;;;;;;;2.27;2.07;;;28.00;72.00;;;;;;5082399;28;20454;-82
2022/08/14 12:30:55;;;;;;;1.73;1.63;;;27.70;72.50;;;;;;5075939;28;20467;-81
2022/08/14 12:33:25;;;;;;;3.47;3.17;;;28.20;73.00;;;;;;5080504;28;20935;-84
2022/08/14 12:35:53;;;;;;;3.77;2.87;;;27.60;72.10;;;;;;5080319;28;20486;-84
2022/08/14 12:38:32;;;;;;;2.83;2.63;;;27.90;74.30;;;;;;5091355;28;20467;-82
2022/08/14 12:41:05;;;;;;;2.00;1.80;;;27.60;75.10;;;;;;5083218;28;20469;-82
2022/08/14 12:43:32;;;;;;;5.03;2.13;;;27.50;76.00;;;;;;5073603;28;20518;-83
2022/08/14 12:46:00;;;;;;;3.03;2.60;;;27.30;76.30;;;;;;5083550;28;20455;-84
2022/08/14 12:48:27;;;;;;;2.60;2.37;;;27.10;76.80;;;;;;5076244;28;20463;-84
2022/08/14 12:50:54;;;;;;;3.00;2.80;;;26.70;77.30;;;;;;5073920;28;21078;-83
2022/08/14 12:53:22;;;;;;;2.50;2.03;;;26.90;78.90;;;;;;5066587;28;20456;-84
2022/08/14 12:56:00;;;;;;;2.07;1.73;;;26.70;78.10;;;;;;5071893;28;20470;-85
2022/08/14 12:58:28;;;;;;;2.33;2.13;;;26.10;79.50;;;;;;5073328;28;20463;-82
2022/08/14 13:00:56;;;;;;;2.87;2.67;;;25.90;80.00;;;;;;5069976;28;20539;-85
2022/08/14 13:03:25;;;;;;;2.50;2.30;;;26.00;81.20;;;;;;5077101;28;21022;-83
2022/08/14 13:05:52;;;;;;;2.90;2.40;;;26.60;80.80;;;;;;5073469;28;20540;-83
2022/08/14 13:08:21;;;;;;;1.70;1.60;;;26.70;80.40;;;;;;5063646;28;20492;-84
2022/08/14 13:10:49;;;;;;;2.17;2.00;;;27.10;80.60;;;;;;5073778;28;20448;-82
2022/08/14 13:13:19;;;;;;;2.50;2.30;;;27.70;79.10;;;;;;5071852;28;20494;-83